METAR Data
IDs: Format: Raw Decoded Include TAF

Data at: 2119 UTC 24 Mar 2019

KBPT 242053Z 17011KT 10SM BKN027 OVC037 23/17 A3009 RMK AO2 SLP190 T02280172 56016
KBPT 241953Z COR 16013KT 10SM SCT020 BKN032 BKN040 25/17 A3010 RMK AO2 SLP192 T02500172
KBPT 241853Z 17013KT 10SM SCT026 BKN035 OVC046 25/17 A3012 RMK AO2 SLP198 T02500172
KBPT 241753Z 15011KT 10SM SCT027 BKN034 OVC045 24/17 A3014 RMK AO2 SLP206 T02390167 10261 20167 58002
KBPT 241653Z 17010KT 10SM SCT023 BKN039 BKN070 25/17 A3016 RMK AO2 SLP211 T02500172
KBPT 241641Z 18011G16KT 10SM FEW024 SCT030 BKN041 24/17 A3016 RMK AO2 T02390167
KBPT 241553Z 17014G18KT 10SM BKN022 BKN027 24/17 A3015 RMK AO2 SLP209 T02390172
KBPT 241510Z 17014KT 10SM BKN017 23/17 A3015 RMK AO2 T02280172
KBPT 241453Z 17008KT 10SM FEW016 23/17 A3015 RMK AO2 SLP208 T02330172 53011
KBPT 241417Z 16010KT 10SM SCT026 22/17 A3014 RMK AO2 T02220172
KBPT 241353Z 14007KT 10SM BKN028 22/17 A3014 RMK AO2 SLP204 T02170172
KBPT 241332Z 14005KT 10SM BKN028 BKN075 20/17 A3014 RMK AO2 T02000167
KBPT 241253Z 12005KT 9SM FEW025 18/16 A3013 RMK AO2 SLP201 T01780156
KBPT 241204Z 11006KT 10SM SCT025 17/15 A3012 RMK AO2 T01720150
KBPT 241153Z 12006KT 10SM BKN025 17/15 A3012 RMK AO2 SLP197 T01720150 10178 20167 55002
KBPT 241053Z 12006KT 10SM BKN025 17/15 A3011 RMK AO2 SLP195 T01720150
KBPT 241032Z AUTO 12006KT 10SM FEW025 17/15 A3011 RMK AO2 T01670150
KBPT 240953Z AUTO 11005KT 10SM OVC022 18/16 A3011 RMK AO2 SLP195 T01780156
KBPT 240853Z AUTO 13003KT 10SM BKN025 17/15 A3012 RMK AO2 SLP199 T01720150 55006
KBPT 240753Z AUTO 13007KT 10SM CLR 18/14 A3011 RMK AO2 SLP195 T01780144
KBPT 240653Z AUTO 13004KT 10SM SCT029 17/15 A3012 RMK AO2 SLP198 T01670150
KBPT 240638Z AUTO 13006KT 10SM BKN029 17/15 A3012 RMK AO2 T01720150
KBPT 240553Z AUTO 12005KT 10SM BKN031 17/15 A3014 RMK AO2 SLP205 T01720150 10200 20167 402440111 55003
KBPT 240453Z AUTO 12006KT 10SM CLR 17/14 A3013 RMK AO2 SLP202 T01720139
KBPT 240353Z AUTO 14006KT 10SM CLR 17/13 A3014 RMK AO2 SLP207 T01720133
KBPT 240253Z AUTO 13005KT 10SM CLR 17/14 A3015 RMK AO2 SLP208 T01720144 53005
KBPT 240153Z 12008KT 10SM FEW080 18/14 A3013 RMK AO2 SLP204 T01830144
KBPT 240053Z 15006KT 10SM OVC080 19/14 A3014 RMK AO2 SLP206 T01940139
KBPT 232353Z 15011KT 10SM SCT090 BKN110 20/11 A3013 RMK AO2 SLP203 T02000106 10244 20200 58001
KBPT 232253Z 15012G18KT 10SM SCT100 OVC110 21/11 A3014 RMK AO2 SLP205 T02110111
KBPT 232153Z 16012G16KT 10SM OVC095 22/10 A3013 RMK AO2 SLP202 T02220100
KBPT 232053Z 15014G23KT 10SM CLR 24/09 A3014 RMK AO2 SLP204 T02390094 56017
KBPT 231953Z 15016G21KT 10SM CLR 24/09 A3014 RMK AO2 SLP206 T02440094
KBPT 231853Z 13016G21KT 10SM CLR 24/11 A3016 RMK AO2 SLP212 T02440106
KBPT 231753Z 14014G19KT 10SM CLR 24/11 A3019 RMK AO2 SLP221 T02390111 10244 20117 58004
KBPT 231653Z 13013G18KT 10SM CLR 24/12 A3019 RMK AO2 SLP223 T02390117
KBPT 231553Z 16012KT 10SM CLR 22/13 A3021 RMK AO2 SLP229 T02220128
KBPT 231453Z 15008KT 10SM CLR 21/14 A3020 RMK AO2 SLP225 T02060144 53025
KBPT 231353Z 11005KT 10SM CLR 18/15 A3017 RMK AO2 SLP216 T01780150
KBPT 231253Z 13003KT 10SM CLR 13/12 A3015 RMK AO2 SLP208 T01280122
KBPT 231229Z 11003KT 10SM CLR 13/12 A3014 RMK AO2 T01280117
KBPT 231224Z 11003KT 1 3/4SM BR CLR 12/11 A3014 RMK AO2 T01220111
KBPT 231153Z 00000KT 10SM CLR 12/11 A3013 RMK AO2 SLP201 T01220111 10139 20111 53011
KBPT 231135Z 00000KT 10SM CLR 12/11 A3012 RMK AO2 T01170106
KBPT 231101Z 00000KT 8SM R12/2000VP6000FT BR BKN003 13/12 A3011 RMK AO2 T01280117
KBPT 231058Z 00000KT 1 1/2SM R12/2000VP6000FT BR FEW003 13/12 A3011 RMK AO2 T01280117
KBPT 231056Z 00000KT 1 1/4SM BR CLR 13/12 A3011 RMK AO2 T01280117
KBPT 231053Z AUTO 00000KT 1/2SM R12/3000VP6000FT FG VV003 12/12 A3011 RMK AO2 SLP194 T01220117
KBPT 231044Z AUTO 00000KT 1/4SM R12/1800V5000FT FG VV003 12/12 A3011 RMK AO2 T01220117
KBPT 231027Z AUTO 00000KT 1/4SM R12/1400V2000FT FG CLR 13/12 A3010 RMK AO2 T01280117
KBPT 231014Z AUTO 00000KT 1/4SM R12/1400V2200FT FG VV003 13/12 A3010 RMK AO2 T01280117
KBPT 230953Z AUTO 14003KT 1/4SM R12/1600VP6000FT FG VV003 13/12 A3009 RMK AO2 SLP190 T01330122
KBPT 230948Z AUTO 16003KT 1/4SM R12/1400VP6000FT FG CLR 14/12 A3009 RMK AO2
KBPT 230941Z AUTO 15003KT 1/4SM R12/1400V2000FT FG CLR 13/12 A3009 RMK AO2 T01330122